sensor_id;sensor_type;location;lat;lon;timestamp;temperature;humidity
18321;DHT22;54904;54.350;18.664;2023-02-12T00:01:10;7.60;98.00
18321;DHT22;54904;54.350;18.664;2023-02-12T00:03:38;7.60;98.00
18321;DHT22;54904;54.350;18.664;2023-02-12T00:06:06;7.60;98.00
18321;DHT22;54904;54.350;18.664;2023-02-12T00:08:34;7.60;97.90
18321;DHT22;54904;54.350;18.664;2023-02-12T00:11:06;7.50;97.80
18321;DHT22;54904;54.350;18.664;2023-02-12T00:13:35;7.60;97.80
18321;DHT22;54904;54.350;18.664;2023-02-12T00:16:07;7.50;97.80
18321;DHT22;54904;54.350;18.664;2023-02-12T00:18:34;7.50;97.50
18321;DHT22;54904;54.350;18.664;2023-02-12T00:21:02;7.50;97.30
18321;DHT22;54904;54.350;18.664;2023-02-12T00:23:30;7.50;97.20
18321;DHT22;54904;54.350;18.664;2023-02-12T00:25:57;7.50;97.10
18321;DHT22;54904;54.350;18.664;2023-02-12T00:28:24;7.50;96.90
18321;DHT22;54904;54.350;18.664;2023-02-12T00:30:53;7.50;96.80
18321;DHT22;54904;54.350;18.664;2023-02-12T00:33:20;7.60;96.80
18321;DHT22;54904;54.350;18.664;2023-02-12T00:35:54;7.60;96.70
18321;DHT22;54904;54.350;18.664;2023-02-12T00:38:22;7.60;96.50
18321;DHT22;54904;54.350;18.664;2023-02-12T00:40:49;7.60;96.30
18321;DHT22;54904;54.350;18.664;2023-02-12T00:43:16;7.60;96.30
18321;DHT22;54904;54.350;18.664;2023-02-12T00:45:44;7.60;96.30
18321;DHT22;54904;54.350;18.664;2023-02-12T00:48:13;7.60;96.20
18321;DHT22;54904;54.350;18.664;2023-02-12T00:50:42;8.80;96.60
18321;DHT22;54904;54.350;18.664;2023-02-12T00:53:10;7.60;95.70
18321;DHT22;54904;54.350;18.664;2023-02-12T00:55:37;7.60;95.70
18321;DHT22;54904;54.350;18.664;2023-02-12T00:58:04;7.60;95.60
18321;DHT22;54904;54.350;18.664;2023-02-12T01:00:32;7.70;95.50
18321;DHT22;54904;54.350;18.664;2023-02-12T01:02:59;7.70;95.30
18321;DHT22;54904;54.350;18.664;2023-02-12T01:05:28;7.60;95.20
18321;DHT22;54904;54.350;18.664;2023-02-12T01:07:55;7.60;95.20
18321;DHT22;54904;54.350;18.664;2023-02-12T01:10:23;7.60;95.00
18321;DHT22;54904;54.350;18.664;2023-02-12T01:12:50;7.60;95.10
18321;DHT22;54904;54.350;18.664;2023-02-12T01:15:17;7.60;94.90
18321;DHT22;54904;54.350;18.664;2023-02-12T01:17:45;7.60;94.90
18321;DHT22;54904;54.350;18.664;2023-02-12T01:20:18;7.60;94.80
18321;DHT22;54904;54.350;18.664;2023-02-12T01:22:47;7.50;94.70
18321;DHT22;54904;54.350;18.664;2023-02-12T01:25:15;7.60;94.80
18321;DHT22;54904;54.350;18.664;2023-02-12T01:27:42;7.60;95.10
18321;DHT22;54904;54.350;18.664;2023-02-12T01:30:13;7.60;94.70
18321;DHT22;54904;54.350;18.664;2023-02-12T01:32:40;7.60;94.70
18321;DHT22;54904;54.350;18.664;2023-02-12T01:35:07;7.60;94.70
18321;DHT22;54904;54.350;18.664;2023-02-12T01:37:36;7.60;94.60
18321;DHT22;54904;54.350;18.664;2023-02-12T01:40:07;7.50;94.60
18321;DHT22;54904;54.350;18.664;2023-02-12T01:42:35;7.50;94.60
18321;DHT22;54904;54.350;18.664;2023-02-12T01:48:21;7.50;94.50
18321;DHT22;54904;54.350;18.664;2023-02-12T01:50:50;7.50;94.40
18321;DHT22;54904;54.350;18.664;2023-02-12T01:53:20;7.50;94.40
18321;DHT22;54904;54.350;18.664;2023-02-12T01:55:53;7.50;94.40
18321;DHT22;54904;54.350;18.664;2023-02-12T01:58:23;7.50;94.30
18321;DHT22;54904;54.350;18.664;2023-02-12T02:00:51;7.50;94.30
18321;DHT22;54904;54.350;18.664;2023-02-12T02:03:18;7.50;94.30
18321;DHT22;54904;54.350;18.664;2023-02-12T02:05:50;7.50;94.20
18321;DHT22;54904;54.350;18.664;2023-02-12T02:08:20;7.50;94.20
18321;DHT22;54904;54.350;18.664;2023-02-12T02:10:49;7.40;94.20
18321;DHT22;54904;54.350;18.664;2023-02-12T02:13:17;7.40;94.10
18321;DHT22;54904;54.350;18.664;2023-02-12T02:16:01;7.40;94.10
18321;DHT22;54904;54.350;18.664;2023-02-12T02:18:38;7.40;94.10
18321;DHT22;54904;54.350;18.664;2023-02-12T02:21:30;7.40;94.00
18321;DHT22;54904;54.350;18.664;2023-02-12T02:27:24;7.30;94.10
18321;DHT22;54904;54.350;18.664;2023-02-12T02:33:08;7.20;94.20
18321;DHT22;54904;54.350;18.664;2023-02-12T02:35:42;7.20;94.20
18321;DHT22;54904;54.350;18.664;2023-02-12T02:38:20;7.10;94.10
18321;DHT22;54904;54.350;18.664;2023-02-12T02:40:54;7.10;94.00
18321;DHT22;54904;54.350;18.664;2023-02-12T02:43:27;8.30;94.50
18321;DHT22;54904;54.350;18.664;2023-02-12T02:45:58;7.10;94.00
18321;DHT22;54904;54.350;18.664;2023-02-12T02:48:34;7.10;94.00
18321;DHT22;54904;54.350;18.664;2023-02-12T02:51:07;7.10;94.00
18321;DHT22;54904;54.350;18.664;2023-02-12T02:53:38;7.10;94.10
18321;DHT22;54904;54.350;18.664;2023-02-12T02:56:11;7.00;94.00
18321;DHT22;54904;54.350;18.664;2023-02-12T02:58:42;7.00;94.00
18321;DHT22;54904;54.350;18.664;2023-02-12T03:01:13;7.00;94.10
18321;DHT22;54904;54.350;18.664;2023-02-12T03:03:49;7.00;94.10
18321;DHT22;54904;54.350;18.664;2023-02-12T03:06:26;6.90;94.10
18321;DHT22;54904;54.350;18.664;2023-02-12T03:08:58;6.90;94.20
18321;DHT22;54904;54.350;18.664;2023-02-12T03:11:29;6.90;94.20
18321;DHT22;54904;54.350;18.664;2023-02-12T03:14:01;6.90;94.20
18321;DHT22;54904;54.350;18.664;2023-02-12T03:16:31;6.90;94.20
18321;DHT22;54904;54.350;18.664;2023-02-12T03:19:07;6.90;94.20
18321;DHT22;54904;54.350;18.664;2023-02-12T03:21:39;6.90;94.20
18321;DHT22;54904;54.350;18.664;2023-02-12T03:24:11;6.90;94.20
18321;DHT22;54904;54.350;18.664;2023-02-12T03:26:44;6.80;94.20
18321;DHT22;54904;54.350;18.664;2023-02-12T03:29:12;6.90;94.30
18321;DHT22;54904;54.350;18.664;2023-02-12T03:31:47;6.90;94.30
18321;DHT22;54904;54.350;18.664;2023-02-12T03:34:25;6.80;94.30
18321;DHT22;54904;54.350;18.664;2023-02-12T03:36:58;6.80;94.40
18321;DHT22;54904;54.350;18.664;2023-02-12T03:39:29;6.80;94.40
18321;DHT22;54904;54.350;18.664;2023-02-12T03:42:02;6.70;94.40
18321;DHT22;54904;54.350;18.664;2023-02-12T03:44:43;6.70;94.50
18321;DHT22;54904;54.350;18.664;2023-02-12T03:47:19;6.70;94.50
18321;DHT22;54904;54.350;18.664;2023-02-12T03:49:54;6.60;94.60
18321;DHT22;54904;54.350;18.664;2023-02-12T03:52:24;6.60;94.70
18321;DHT22;54904;54.350;18.664;2023-02-12T03:54:52;6.60;94.70
18321;DHT22;54904;54.350;18.664;2023-02-12T03:57:20;6.60;94.80
18321;DHT22;54904;54.350;18.664;2023-02-12T03:59:49;6.60;94.80
18321;DHT22;54904;54.350;18.664;2023-02-12T04:02:18;6.50;94.80
18321;DHT22;54904;54.350;18.664;2023-02-12T04:04:45;6.50;94.80
18321;DHT22;54904;54.350;18.664;2023-02-12T04:07:15;6.50;94.80
18321;DHT22;54904;54.350;18.664;2023-02-12T04:09:42;6.50;94.80
18321;DHT22;54904;54.350;18.664;2023-02-12T04:12:22;6.50;94.80
18321;DHT22;54904;54.350;18.664;2023-02-12T04:14:56;6.50;94.90
18321;DHT22;54904;54.350;18.664;2023-02-12T04:17:34;6.50;94.90
18321;DHT22;54904;54.350;18.664;2023-02-12T04:20:11;6.50;94.90
18321;DHT22;54904;54.350;18.664;2023-02-12T04:22:53;6.50;94.90
18321;DHT22;54904;54.350;18.664;2023-02-12T04:25:27;6.50;94.90
18321;DHT22;54904;54.350;18.664;2023-02-12T04:28:05;6.40;94.90
18321;DHT22;54904;54.350;18.664;2023-02-12T04:30:40;6.40;94.90
18321;DHT22;54904;54.350;18.664;2023-02-12T04:33:10;6.40;94.90
18321;DHT22;54904;54.350;18.664;2023-02-12T04:35:45;6.30;94.90
18321;DHT22;54904;54.350;18.664;2023-02-12T04:38:19;6.30;95.00
18321;DHT22;54904;54.350;18.664;2023-02-12T04:40:48;6.30;95.00
18321;DHT22;54904;54.350;18.664;2023-02-12T04:43:26;6.30;95.00
18321;DHT22;54904;54.350;18.664;2023-02-12T04:45:53;6.20;95.10
18321;DHT22;54904;54.350;18.664;2023-02-12T04:48:21;6.20;95.20
18321;DHT22;54904;54.350;18.664;2023-02-12T04:50:48;6.20;95.20
18321;DHT22;54904;54.350;18.664;2023-02-12T04:53:16;6.20;95.20
18321;DHT22;54904;54.350;18.664;2023-02-12T04:55:44;6.20;95.10
18321;DHT22;54904;54.350;18.664;2023-02-12T04:58:12;6.20;95.10
18321;DHT22;54904;54.350;18.664;2023-02-12T05:00:39;6.20;95.10
18321;DHT22;54904;54.350;18.664;2023-02-12T05:03:07;6.20;95.10
18321;DHT22;54904;54.350;18.664;2023-02-12T05:05:34;6.20;95.20
18321;DHT22;54904;54.350;18.664;2023-02-12T05:08:01;6.10;95.20
18321;DHT22;54904;54.350;18.664;2023-02-12T05:10:29;6.10;95.60
18321;DHT22;54904;54.350;18.664;2023-02-12T05:12:56;6.10;95.30
18321;DHT22;54904;54.350;18.664;2023-02-12T05:15:23;6.10;95.30
18321;DHT22;54904;54.350;18.664;2023-02-12T05:17:51;6.10;95.30
18321;DHT22;54904;54.350;18.664;2023-02-12T05:20:18;6.10;95.30
18321;DHT22;54904;54.350;18.664;2023-02-12T05:22:45;6.10;95.30
18321;DHT22;54904;54.350;18.664;2023-02-12T05:25:12;6.10;95.30
18321;DHT22;54904;54.350;18.664;2023-02-12T05:27:41;6.10;95.30
18321;DHT22;54904;54.350;18.664;2023-02-12T05:30:08;6.10;95.30
18321;DHT22;54904;54.350;18.664;2023-02-12T05:32:36;6.10;95.20
18321;DHT22;54904;54.350;18.664;2023-02-12T05:35:03;6.10;95.30
18321;DHT22;54904;54.350;18.664;2023-02-12T05:37:33;6.10;95.30
18321;DHT22;54904;54.350;18.664;2023-02-12T05:40:01;6.10;95.30
18321;DHT22;54904;54.350;18.664;2023-02-12T05:42:28;6.10;95.30
18321;DHT22;54904;54.350;18.664;2023-02-12T05:44:57;6.10;95.30
18321;DHT22;54904;54.350;18.664;2023-02-12T05:47:24;6.10;95.30
18321;DHT22;54904;54.350;18.664;2023-02-12T05:49:51;6.10;95.30
18321;DHT22;54904;54.350;18.664;2023-02-12T05:52:18;6.10;95.40
18321;DHT22;54904;54.350;18.664;2023-02-12T05:54:48;6.10;95.40
18321;DHT22;54904;54.350;18.664;2023-02-12T05:57:15;6.10;95.40
18321;DHT22;54904;54.350;18.664;2023-02-12T05:59:43;6.10;95.40
18321;DHT22;54904;54.350;18.664;2023-02-12T06:02:11;6.00;95.40
18321;DHT22;54904;54.350;18.664;2023-02-12T06:04:38;6.00;95.40
18321;DHT22;54904;54.350;18.664;2023-02-12T06:07:05;6.00;95.50
18321;DHT22;54904;54.350;18.664;2023-02-12T06:09:33;6.00;95.50
18321;DHT22;54904;54.350;18.664;2023-02-12T06:12:01;6.00;95.50
18321;DHT22;54904;54.350;18.664;2023-02-12T06:14:28;5.90;95.50
18321;DHT22;54904;54.350;18.664;2023-02-12T06:16:55;5.90;95.50
18321;DHT22;54904;54.350;18.664;2023-02-12T06:19:23;5.90;95.50
18321;DHT22;54904;54.350;18.664;2023-02-12T06:21:51;5.90;95.60
18321;DHT22;54904;54.350;18.664;2023-02-12T06:24:18;5.90;95.60
18321;DHT22;54904;54.350;18.664;2023-02-12T06:26:47;5.90;95.60
18321;DHT22;54904;54.350;18.664;2023-02-12T06:29:14;5.90;95.60
18321;DHT22;54904;54.350;18.664;2023-02-12T06:31:42;5.90;95.60
18321;DHT22;54904;54.350;18.664;2023-02-12T06:34:11;5.90;95.60
18321;DHT22;54904;54.350;18.664;2023-02-12T06:36:41;5.90;95.70
18321;DHT22;54904;54.350;18.664;2023-02-12T06:39:10;5.90;95.70
18321;DHT22;54904;54.350;18.664;2023-02-12T06:41:37;5.90;95.70
18321;DHT22;54904;54.350;18.664;2023-02-12T06:44:05;5.90;95.70
18321;DHT22;54904;54.350;18.664;2023-02-12T06:46:32;5.90;95.70
18321;DHT22;54904;54.350;18.664;2023-02-12T06:49:00;6.00;95.70
18321;DHT22;54904;54.350;18.664;2023-02-12T06:51:28;6.00;95.70
18321;DHT22;54904;54.350;18.664;2023-02-12T06:53:57;6.00;95.70
18321;DHT22;54904;54.350;18.664;2023-02-12T06:56:25;6.00;95.70
18321;DHT22;54904;54.350;18.664;2023-02-12T06:58:54;6.00;95.70
18321;DHT22;54904;54.350;18.664;2023-02-12T07:01:23;6.10;95.80
18321;DHT22;54904;54.350;18.664;2023-02-12T07:03:52;6.10;95.70
18321;DHT22;54904;54.350;18.664;2023-02-12T07:06:20;6.10;95.70
18321;DHT22;54904;54.350;18.664;2023-02-12T07:08:47;6.00;95.70
18321;DHT22;54904;54.350;18.664;2023-02-12T07:11:16;6.10;95.80
18321;DHT22;54904;54.350;18.664;2023-02-12T07:13:44;6.10;95.70
18321;DHT22;54904;54.350;18.664;2023-02-12T07:16:13;6.20;95.80
18321;DHT22;54904;54.350;18.664;2023-02-12T07:18:42;6.20;95.70
18321;DHT22;54904;54.350;18.664;2023-02-12T07:21:10;6.20;95.60
18321;DHT22;54904;54.350;18.664;2023-02-12T07:23:38;6.20;95.50
18321;DHT22;54904;54.350;18.664;2023-02-12T07:26:07;6.20;95.50
18321;DHT22;54904;54.350;18.664;2023-02-12T07:28:36;6.30;95.50
18321;DHT22;54904;54.350;18.664;2023-02-12T07:31:07;6.30;95.50
18321;DHT22;54904;54.350;18.664;2023-02-12T07:33:35;6.40;95.60
18321;DHT22;54904;54.350;18.664;2023-02-12T07:36:04;6.50;95.50
18321;DHT22;54904;54.350;18.664;2023-02-12T07:38:31;6.50;95.60
18321;DHT22;54904;54.350;18.664;2023-02-12T07:41:06;6.50;95.50
18321;DHT22;54904;54.350;18.664;2023-02-12T07:43:33;6.50;95.40
18321;DHT22;54904;54.350;18.664;2023-02-12T07:46:07;6.50;95.40
18321;DHT22;54904;54.350;18.664;2023-02-12T07:48:34;6.60;95.50
18321;DHT22;54904;54.350;18.664;2023-02-12T07:51:03;6.60;95.50
18321;DHT22;54904;54.350;18.664;2023-02-12T07:53:31;6.60;95.40
18321;DHT22;54904;54.350;18.664;2023-02-12T07:56:04;6.60;95.30
18321;DHT22;54904;54.350;18.664;2023-02-12T07:58:32;6.70;95.30
18321;DHT22;54904;54.350;18.664;2023-02-12T08:00:59;6.70;95.30
18321;DHT22;54904;54.350;18.664;2023-02-12T08:03:28;6.80;95.30
18321;DHT22;54904;54.350;18.664;2023-02-12T08:05:55;6.80;95.20
18321;DHT22;54904;54.350;18.664;2023-02-12T08:08:22;6.90;95.20
18321;DHT22;54904;54.350;18.664;2023-02-12T08:10:49;7.00;95.20
18321;DHT22;54904;54.350;18.664;2023-02-12T08:13:16;7.10;95.10
18321;DHT22;54904;54.350;18.664;2023-02-12T08:15:44;7.10;95.10
18321;DHT22;54904;54.350;18.664;2023-02-12T08:18:11;7.20;95.00
18321;DHT22;54904;54.350;18.664;2023-02-12T08:20:39;7.20;94.90
18321;DHT22;54904;54.350;18.664;2023-02-12T08:23:06;7.20;94.70
18321;DHT22;54904;54.350;18.664;2023-02-12T08:25:33;7.20;94.70
18321;DHT22;54904;54.350;18.664;2023-02-12T08:28:00;7.20;94.70
18321;DHT22;54904;54.350;18.664;2023-02-12T08:30:28;7.20;94.60
18321;DHT22;54904;54.350;18.664;2023-02-12T08:32:55;7.20;94.60
18321;DHT22;54904;54.350;18.664;2023-02-12T08:35:22;7.20;94.70
18321;DHT22;54904;54.350;18.664;2023-02-12T08:37:50;7.30;94.80
18321;DHT22;54904;54.350;18.664;2023-02-12T08:40:18;7.30;94.80
18321;DHT22;54904;54.350;18.664;2023-02-12T08:42:45;7.40;94.80
18321;DHT22;54904;54.350;18.664;2023-02-12T08:45:12;7.40;94.80
18321;DHT22;54904;54.350;18.664;2023-02-12T08:47:39;7.40;94.60
18321;DHT22;54904;54.350;18.664;2023-02-12T08:50:07;7.40;94.70
18321;DHT22;54904;54.350;18.664;2023-02-12T08:52:35;7.30;94.70
18321;DHT22;54904;54.350;18.664;2023-02-12T08:55:03;7.30;94.80
18321;DHT22;54904;54.350;18.664;2023-02-12T08:57:31;7.30;94.90
18321;DHT22;54904;54.350;18.664;2023-02-12T08:59:59;7.30;94.90
18321;DHT22;54904;54.350;18.664;2023-02-12T09:02:26;7.40;95.00
18321;DHT22;54904;54.350;18.664;2023-02-12T09:04:53;7.40;95.00
18321;DHT22;54904;54.350;18.664;2023-02-12T09:07:20;7.40;95.00
18321;DHT22;54904;54.350;18.664;2023-02-12T09:09:47;7.40;95.00
18321;DHT22;54904;54.350;18.664;2023-02-12T09:12:16;7.40;95.00
18321;DHT22;54904;54.350;18.664;2023-02-12T09:14:43;7.40;95.10
18321;DHT22;54904;54.350;18.664;2023-02-12T09:17:10;7.50;95.20
18321;DHT22;54904;54.350;18.664;2023-02-12T09:19:37;7.60;95.10
18321;DHT22;54904;54.350;18.664;2023-02-12T09:22:04;7.60;95.10
18321;DHT22;54904;54.350;18.664;2023-02-12T09:24:32;7.70;95.10
18321;DHT22;54904;54.350;18.664;2023-02-12T09:26:59;7.80;95.10
18321;DHT22;54904;54.350;18.664;2023-02-12T09:29:27;7.80;95.00
18321;DHT22;54904;54.350;18.664;2023-02-12T09:31:55;7.80;94.80
18321;DHT22;54904;54.350;18.664;2023-02-12T09:34:22;7.80;94.80
18321;DHT22;54904;54.350;18.664;2023-02-12T09:36:52;7.80;94.80
18321;DHT22;54904;54.350;18.664;2023-02-12T09:39:19;7.90;94.90
18321;DHT22;54904;54.350;18.664;2023-02-12T09:42:07;7.90;94.80
18321;DHT22;54904;54.350;18.664;2023-02-12T09:44:45;8.00;94.80
18321;DHT22;54904;54.350;18.664;2023-02-12T09:47:16;8.20;94.70
18321;DHT22;54904;54.350;18.664;2023-02-12T09:50:11;8.20;94.40
18321;DHT22;54904;54.350;18.664;2023-02-12T09:52:43;8.20;94.50
18321;DHT22;54904;54.350;18.664;2023-02-12T09:55:13;8.20;94.40
18321;DHT22;54904;54.350;18.664;2023-02-12T09:57:41;8.20;94.40
18321;DHT22;54904;54.350;18.664;2023-02-12T10:00:15;8.10;94.30
18321;DHT22;54904;54.350;18.664;2023-02-12T10:02:44;8.10;94.40
18321;DHT22;54904;54.350;18.664;2023-02-12T10:05:15;8.10;94.50
18321;DHT22;54904;54.350;18.664;2023-02-12T10:08:01;8.20;94.60
18321;DHT22;54904;54.350;18.664;2023-02-12T10:10:42;8.20;94.50
18321;DHT22;54904;54.350;18.664;2023-02-12T10:13:17;8.10;94.60
18321;DHT22;54904;54.350;18.664;2023-02-12T10:15:54;8.10;94.70
18321;DHT22;54904;54.350;18.664;2023-02-12T10:18:41;8.20;94.70
18321;DHT22;54904;54.350;18.664;2023-02-12T10:21:19;8.20;94.70
18321;DHT22;54904;54.350;18.664;2023-02-12T10:24:05;8.30;94.80
18321;DHT22;54904;54.350;18.664;2023-02-12T10:26:41;8.40;94.80
18321;DHT22;54904;54.350;18.664;2023-02-12T10:29:13;8.50;94.80
18321;DHT22;54904;54.350;18.664;2023-02-12T10:31:45;8.60;94.70
18321;DHT22;54904;54.350;18.664;2023-02-12T10:34:17;8.70;94.70
18321;DHT22;54904;54.350;18.664;2023-02-12T10:36:46;8.70;94.50
18321;DHT22;54904;54.350;18.664;2023-02-12T10:39:18;8.70;94.50
18321;DHT22;54904;54.350;18.664;2023-02-12T10:41:51;8.80;94.60
18321;DHT22;54904;54.350;18.664;2023-02-12T10:44:21;8.90;94.30
18321;DHT22;54904;54.350;18.664;2023-02-12T10:46:49;9.00;94.30
18321;DHT22;54904;54.350;18.664;2023-02-12T10:49:18;9.00;94.00
18321;DHT22;54904;54.350;18.664;2023-02-12T10:52:10;9.10;93.90
18321;DHT22;54904;54.350;18.664;2023-02-12T10:54:40;9.30;94.00
18321;DHT22;54904;54.350;18.664;2023-02-12T10:57:18;9.40;93.70
18321;DHT22;54904;54.350;18.664;2023-02-12T10:59:48;9.50;93.70
18321;DHT22;54904;54.350;18.664;2023-02-12T11:02:25;9.60;93.50
18321;DHT22;54904;54.350;18.664;2023-02-12T11:04:54;9.80;93.60
18321;DHT22;54904;54.350;18.664;2023-02-12T11:07:23;9.90;93.50
18321;DHT22;54904;54.350;18.664;2023-02-12T11:09:53;10.10;92.80
18321;DHT22;54904;54.350;18.664;2023-02-12T11:12:28;10.30;92.40
18321;DHT22;54904;54.350;18.664;2023-02-12T11:14:57;10.40;92.40
18321;DHT22;54904;54.350;18.664;2023-02-12T11:17:31;10.40;92.30
18321;DHT22;54904;54.350;18.664;2023-02-12T11:22:52;10.80;92.10
18321;DHT22;54904;54.350;18.664;2023-02-12T11:25:20;10.90;91.80
18321;DHT22;54904;54.350;18.664;2023-02-12T11:28:09;11.10;91.70
18321;DHT22;54904;54.350;18.664;2023-02-12T11:30:48;11.30;91.70
18321;DHT22;54904;54.350;18.664;2023-02-12T11:33:23;11.40;91.10
18321;DHT22;54904;54.350;18.664;2023-02-12T11:35:53;11.40;90.90
18321;DHT22;54904;54.350;18.664;2023-02-12T11:38:27;11.30;90.90
18321;DHT22;54904;54.350;18.664;2023-02-12T11:40:58;11.30;90.70
18321;DHT22;54904;54.350;18.664;2023-02-12T11:43:27;11.20;90.40
18321;DHT22;54904;54.350;18.664;2023-02-12T11:45:57;11.10;90.60
18321;DHT22;54904;54.350;18.664;2023-02-12T11:48:29;11.10;90.80
18321;DHT22;54904;54.350;18.664;2023-02-12T11:51:00;11.10;90.70
18321;DHT22;54904;54.350;18.664;2023-02-12T11:53:31;11.10;90.50
18321;DHT22;54904;54.350;18.664;2023-02-12T11:56:00;11.10;90.50
18321;DHT22;54904;54.350;18.664;2023-02-12T11:58:28;11.10;90.50
18321;DHT22;54904;54.350;18.664;2023-02-12T12:01:02;11.10;90.60
18321;DHT22;54904;54.350;18.664;2023-02-12T12:03:36;11.10;90.60
18321;DHT22;54904;54.350;18.664;2023-02-12T12:06:08;11.20;90.60
18321;DHT22;54904;54.350;18.664;2023-02-12T12:08:43;11.20;90.60
18321;DHT22;54904;54.350;18.664;2023-02-12T12:11:15;11.10;90.50
18321;DHT22;54904;54.350;18.664;2023-02-12T12:13:47;11.10;90.60
18321;DHT22;54904;54.350;18.664;2023-02-12T12:16:21;11.10;90.50
18321;DHT22;54904;54.350;18.664;2023-02-12T12:19:15;11.00;90.60
18321;DHT22;54904;54.350;18.664;2023-02-12T12:22:25;11.00;90.80
18321;DHT22;54904;54.350;18.664;2023-02-12T12:24:59;10.90;90.90
18321;DHT22;54904;54.350;18.664;2023-02-12T12:27:33;10.90;91.10
18321;DHT22;54904;54.350;18.664;2023-02-12T12:30:22;10.90;91.20
18321;DHT22;54904;54.350;18.664;2023-02-12T12:32:52;10.90;91.40
18321;DHT22;54904;54.350;18.664;2023-02-12T12:35:35;10.90;91.60
18321;DHT22;54904;54.350;18.664;2023-02-12T12:38:15;10.80;91.80
18321;DHT22;54904;54.350;18.664;2023-02-12T12:40:59;10.60;92.10
18321;DHT22;54904;54.350;18.664;2023-02-12T12:43:38;10.40;92.50
18321;DHT22;54904;54.350;18.664;2023-02-12T12:46:20;10.20;93.00
18321;DHT22;54904;54.350;18.664;2023-02-12T12:52:02;9.90;94.10
18321;DHT22;54904;54.350;18.664;2023-02-12T12:54:45;9.80;94.40
18321;DHT22;54904;54.350;18.664;2023-02-12T12:57:22;9.80;94.50
18321;DHT22;54904;54.350;18.664;2023-02-12T13:00:11;9.70;94.60
18321;DHT22;54904;54.350;18.664;2023-02-12T13:06:13;9.60;95.00
18321;DHT22;54904;54.350;18.664;2023-02-12T13:08:55;9.60;95.30
18321;DHT22;54904;54.350;18.664;2023-02-12T13:11:34;9.40;95.40
18321;DHT22;54904;54.350;18.664;2023-02-12T13:14:13;9.30;95.50
18321;DHT22;54904;54.350;18.664;2023-02-12T13:16:50;9.30;95.70
18321;DHT22;54904;54.350;18.664;2023-02-12T13:19:30;9.20;95.80
18321;DHT22;54904;54.350;18.664;2023-02-12T13:22:03;9.20;96.00
18321;DHT22;54904;54.350;18.664;2023-02-12T13:24:39;9.10;96.10
18321;DHT22;54904;54.350;18.664;2023-02-12T13:27:13;9.10;96.20
18321;DHT22;54904;54.350;18.664;2023-02-12T13:29:45;9.10;96.30
18321;DHT22;54904;54.350;18.664;2023-02-12T13:32:19;9.10;96.40
18321;DHT22;54904;54.350;18.664;2023-02-12T13:34:48;9.00;96.60
18321;DHT22;54904;54.350;18.664;2023-02-12T13:37:18;9.00;97.20
18321;DHT22;54904;54.350;18.664;2023-02-12T13:39:48;8.90;97.20
18321;DHT22;54904;54.350;18.664;2023-02-12T13:42:26;8.80;97.60
18321;DHT22;54904;54.350;18.664;2023-02-12T13:44:58;8.80;97.40
18321;DHT22;54904;54.350;18.664;2023-02-12T13:47:32;8.70;97.60
18321;DHT22;54904;54.350;18.664;2023-02-12T13:50:02;8.70;97.70
18321;DHT22;54904;54.350;18.664;2023-02-12T13:52:37;8.70;97.80
18321;DHT22;54904;54.350;18.664;2023-02-12T13:55:20;8.70;98.00
18321;DHT22;54904;54.350;18.664;2023-02-12T14:01:03;8.60;98.40
18321;DHT22;54904;54.350;18.664;2023-02-12T14:03:32;8.60;98.50
18321;DHT22;54904;54.350;18.664;2023-02-12T14:06:09;8.60;98.60
18321;DHT22;54904;54.350;18.664;2023-02-12T14:08:38;8.60;98.90
18321;DHT22;54904;54.350;18.664;2023-02-12T14:11:10;8.50;99.10
18321;DHT22;54904;54.350;18.664;2023-02-12T14:13:48;8.50;99.30
18321;DHT22;54904;54.350;18.664;2023-02-12T14:16:20;8.50;99.30
18321;DHT22;54904;54.350;18.664;2023-02-12T14:19:35;8.50;99.50
18321;DHT22;54904;54.350;18.664;2023-02-12T14:22:10;8.50;99.70
18321;DHT22;54904;54.350;18.664;2023-02-12T14:24:59;8.50;99.90
18321;DHT22;54904;54.350;18.664;2023-02-12T14:27:34;8.50;99.90
18321;DHT22;54904;54.350;18.664;2023-02-12T14:32:57;8.50;99.90
18321;DHT22;54904;54.350;18.664;2023-02-12T14:35:33;8.50;99.90
18321;DHT22;54904;54.350;18.664;2023-02-12T14:38:02;8.50;99.90
18321;DHT22;54904;54.350;18.664;2023-02-12T14:40:40;8.50;99.90
18321;DHT22;54904;54.350;18.664;2023-02-12T14:43:37;8.50;99.90
18321;DHT22;54904;54.350;18.664;2023-02-12T14:46:46;8.60;99.90
18321;DHT22;54904;54.350;18.664;2023-02-12T14:49:23;8.60;99.90
18321;DHT22;54904;54.350;18.664;2023-02-12T14:51:56;8.60;99.90
18321;DHT22;54904;54.350;18.664;2023-02-12T14:54:29;8.60;99.90
18321;DHT22;54904;54.350;18.664;2023-02-12T14:57:00;8.60;99.90
18321;DHT22;54904;54.350;18.664;2023-02-12T14:59:32;8.60;99.90
18321;DHT22;54904;54.350;18.664;2023-02-12T15:02:03;8.60;99.90
18321;DHT22;54904;54.350;18.664;2023-02-12T15:04:33;8.60;99.90
18321;DHT22;54904;54.350;18.664;2023-02-12T15:07:06;8.60;99.90
18321;DHT22;54904;54.350;18.664;2023-02-12T15:09:38;8.70;99.90
18321;DHT22;54904;54.350;18.664;2023-02-12T15:12:11;8.70;99.90
18321;DHT22;54904;54.350;18.664;2023-02-12T15:14:47;8.70;99.90
18321;DHT22;54904;54.350;18.664;2023-02-12T15:17:20;8.60;99.90
18321;DHT22;54904;54.350;18.664;2023-02-12T15:19:52;8.70;99.90
18321;DHT22;54904;54.350;18.664;2023-02-12T15:22:22;8.60;99.90
18321;DHT22;54904;54.350;18.664;2023-02-12T15:24:50;8.60;99.90
18321;DHT22;54904;54.350;18.664;2023-02-12T15:27:18;8.60;99.90
18321;DHT22;54904;54.350;18.664;2023-02-12T15:29:49;8.50;99.90
18321;DHT22;54904;54.350;18.664;2023-02-12T15:32:22;8.60;99.90
18321;DHT22;54904;54.350;18.664;2023-02-12T15:34:51;8.60;99.90
18321;DHT22;54904;54.350;18.664;2023-02-12T15:37:22;8.60;99.90
18321;DHT22;54904;54.350;18.664;2023-02-12T15:39:52;8.20;99.90
18321;DHT22;54904;54.350;18.664;2023-02-12T15:42:29;8.70;99.90
18321;DHT22;54904;54.350;18.664;2023-02-12T15:45:19;8.70;99.90
18321;DHT22;54904;54.350;18.664;2023-02-12T15:48:03;8.70;99.90
18321;DHT22;54904;54.350;18.664;2023-02-12T15:50:33;8.60;99.90
18321;DHT22;54904;54.350;18.664;2023-02-12T15:53:02;8.60;99.90
18321;DHT22;54904;54.350;18.664;2023-02-12T15:55:34;8.60;99.90
18321;DHT22;54904;54.350;18.664;2023-02-12T15:58:02;8.60;99.90
18321;DHT22;54904;54.350;18.664;2023-02-12T16:00:38;8.60;99.90
18321;DHT22;54904;54.350;18.664;2023-02-12T16:03:18;8.60;99.90
18321;DHT22;54904;54.350;18.664;2023-02-12T16:05:46;8.60;99.90
18321;DHT22;54904;54.350;18.664;2023-02-12T16:08:15;8.60;99.90
18321;DHT22;54904;54.350;18.664;2023-02-12T16:10:44;8.60;99.90
18321;DHT22;54904;54.350;18.664;2023-02-12T16:13:15;8.60;99.90
18321;DHT22;54904;54.350;18.664;2023-02-12T16:15:45;8.60;99.90
18321;DHT22;54904;54.350;18.664;2023-02-12T16:18:22;8.60;99.90
18321;DHT22;54904;54.350;18.664;2023-02-12T16:21:01;8.60;99.90
18321;DHT22;54904;54.350;18.664;2023-02-12T16:23:30;8.60;99.90